sensor_id;sensor_type;location;lat;lon;timestamp;temperature;humidity
5492;DHT22;2768;53.540;10.224;2023-03-09T00:03:23;2.80;99.90
5492;DHT22;2768;53.540;10.224;2023-03-09T00:09:19;2.90;99.90
5492;DHT22;2768;53.540;10.224;2023-03-09T00:15:12;2.90;99.90
5492;DHT22;2768;53.540;10.224;2023-03-09T00:21:06;2.70;99.90
5492;DHT22;2768;53.540;10.224;2023-03-09T00:27:01;2.80;99.90
5492;DHT22;2768;53.540;10.224;2023-03-09T00:32:55;2.80;99.90
5492;DHT22;2768;53.540;10.224;2023-03-09T00:38:52;2.70;99.90
5492;DHT22;2768;53.540;10.224;2023-03-09T00:44:47;2.70;99.90
5492;DHT22;2768;53.540;10.224;2023-03-09T00:50:42;2.60;99.90
5492;DHT22;2768;53.540;10.224;2023-03-09T00:56:36;2.80;99.90
5492;DHT22;2768;53.540;10.224;2023-03-09T01:02:31;2.70;99.90
5492;DHT22;2768;53.540;10.224;2023-03-09T01:08:26;2.70;99.90
5492;DHT22;2768;53.540;10.224;2023-03-09T01:14:19;2.70;99.90
5492;DHT22;2768;53.540;10.224;2023-03-09T01:20:15;2.70;99.90
5492;DHT22;2768;53.540;10.224;2023-03-09T01:26:08;2.60;99.90
5492;DHT22;2768;53.540;10.224;2023-03-09T01:32:02;2.60;99.90
5492;DHT22;2768;53.540;10.224;2023-03-09T01:37:57;2.60;99.90
5492;DHT22;2768;53.540;10.224;2023-03-09T01:43:53;2.60;99.90
5492;DHT22;2768;53.540;10.224;2023-03-09T01:49:48;2.50;99.90
5492;DHT22;2768;53.540;10.224;2023-03-09T01:55:46;2.60;99.90
5492;DHT22;2768;53.540;10.224;2023-03-09T02:01:43;2.60;99.90
5492;DHT22;2768;53.540;10.224;2023-03-09T02:07:41;2.50;99.90
5492;DHT22;2768;53.540;10.224;2023-03-09T02:13:42;2.50;99.90
5492;DHT22;2768;53.540;10.224;2023-03-09T02:19:44;2.60;99.90
5492;DHT22;2768;53.540;10.224;2023-03-09T02:25:45;2.60;99.90
5492;DHT22;2768;53.540;10.224;2023-03-09T02:31:41;2.60;99.90
5492;DHT22;2768;53.540;10.224;2023-03-09T02:37:37;2.60;99.90
5492;DHT22;2768;53.540;10.224;2023-03-09T02:43:42;2.50;99.90
5492;DHT22;2768;53.540;10.224;2023-03-09T02:49:38;2.50;99.90
5492;DHT22;2768;53.540;10.224;2023-03-09T02:55:32;2.50;99.90
5492;DHT22;2768;53.540;10.224;2023-03-09T03:01:29;2.60;99.90
5492;DHT22;2768;53.540;10.224;2023-03-09T03:07:24;2.60;99.90
5492;DHT22;2768;53.540;10.224;2023-03-09T03:13:18;2.60;99.90
5492;DHT22;2768;53.540;10.224;2023-03-09T03:19:12;2.60;99.90
5492;DHT22;2768;53.540;10.224;2023-03-09T03:25:08;2.50;99.90
5492;DHT22;2768;53.540;10.224;2023-03-09T03:31:05;2.60;99.90
5492;DHT22;2768;53.540;10.224;2023-03-09T03:36:58;2.50;99.90
5492;DHT22;2768;53.540;10.224;2023-03-09T03:42:56;2.60;99.90
5492;DHT22;2768;53.540;10.224;2023-03-09T03:48:49;2.60;99.90
5492;DHT22;2768;53.540;10.224;2023-03-09T03:54:44;2.60;99.90
5492;DHT22;2768;53.540;10.224;2023-03-09T04:00:39;2.60;99.90
5492;DHT22;2768;53.540;10.224;2023-03-09T04:06:36;2.60;99.90
5492;DHT22;2768;53.540;10.224;2023-03-09T04:12:31;2.50;99.90
5492;DHT22;2768;53.540;10.224;2023-03-09T04:18:26;2.50;99.90
5492;DHT22;2768;53.540;10.224;2023-03-09T04:24:19;2.50;99.90
5492;DHT22;2768;53.540;10.224;2023-03-09T04:30:13;2.40;99.90
5492;DHT22;2768;53.540;10.224;2023-03-09T04:36:15;2.40;99.90
5492;DHT22;2768;53.540;10.224;2023-03-09T04:42:11;2.50;99.90
5492;DHT22;2768;53.540;10.224;2023-03-09T04:48:05;2.50;99.90
5492;DHT22;2768;53.540;10.224;2023-03-09T04:54:03;2.50;99.90
5492;DHT22;2768;53.540;10.224;2023-03-09T04:59:57;2.60;99.90
5492;DHT22;2768;53.540;10.224;2023-03-09T05:05:53;2.60;99.90
5492;DHT22;2768;53.540;10.224;2023-03-09T05:11:52;2.60;99.90
5492;DHT22;2768;53.540;10.224;2023-03-09T05:17:47;2.70;99.90
5492;DHT22;2768;53.540;10.224;2023-03-09T05:23:40;2.70;99.90
5492;DHT22;2768;53.540;10.224;2023-03-09T05:29:37;2.50;99.90
5492;DHT22;2768;53.540;10.224;2023-03-09T05:35:32;2.50;99.90
5492;DHT22;2768;53.540;10.224;2023-03-09T05:41:27;2.50;99.90
5492;DHT22;2768;53.540;10.224;2023-03-09T05:47:27;2.50;99.90
5492;DHT22;2768;53.540;10.224;2023-03-09T05:53:21;2.50;99.90
5492;DHT22;2768;53.540;10.224;2023-03-09T05:59:14;2.60;99.90
5492;DHT22;2768;53.540;10.224;2023-03-09T06:05:10;2.60;99.90
5492;DHT22;2768;53.540;10.224;2023-03-09T06:11:04;2.60;99.90
5492;DHT22;2768;53.540;10.224;2023-03-09T06:16:58;2.60;99.90
5492;DHT22;2768;53.540;10.224;2023-03-09T06:22:55;2.60;99.90
5492;DHT22;2768;53.540;10.224;2023-03-09T06:28:48;2.60;99.90
5492;DHT22;2768;53.540;10.224;2023-03-09T06:34:43;2.50;99.90
5492;DHT22;2768;53.540;10.224;2023-03-09T06:40:39;2.50;99.90
5492;DHT22;2768;53.540;10.224;2023-03-09T06:46:33;2.50;99.90
5492;DHT22;2768;53.540;10.224;2023-03-09T06:52:27;2.60;99.90
5492;DHT22;2768;53.540;10.224;2023-03-09T06:58:22;2.50;99.90
5492;DHT22;2768;53.540;10.224;2023-03-09T07:04:17;2.60;99.90
5492;DHT22;2768;53.540;10.224;2023-03-09T07:10:11;2.70;99.90
5492;DHT22;2768;53.540;10.224;2023-03-09T07:16:07;2.80;99.90
5492;DHT22;2768;53.540;10.224;2023-03-09T07:22:01;2.80;99.90
5492;DHT22;2768;53.540;10.224;2023-03-09T07:27:54;2.90;99.90
5492;DHT22;2768;53.540;10.224;2023-03-09T07:33:49;2.80;99.90
5492;DHT22;2768;53.540;10.224;2023-03-09T07:39:42;3.00;99.90
5492;DHT22;2768;53.540;10.224;2023-03-09T07:45:37;3.00;99.90
5492;DHT22;2768;53.540;10.224;2023-03-09T07:51:32;3.10;99.90
5492;DHT22;2768;53.540;10.224;2023-03-09T07:57:30;3.30;99.90
5492;DHT22;2768;53.540;10.224;2023-03-09T08:03:24;3.30;99.90
5492;DHT22;2768;53.540;10.224;2023-03-09T08:09:18;3.30;99.90
5492;DHT22;2768;53.540;10.224;2023-03-09T08:15:12;3.30;99.90
5492;DHT22;2768;53.540;10.224;2023-03-09T08:21:07;3.30;99.90
5492;DHT22;2768;53.540;10.224;2023-03-09T08:27:02;3.40;99.90
5492;DHT22;2768;53.540;10.224;2023-03-09T08:32:57;3.60;99.90
5492;DHT22;2768;53.540;10.224;2023-03-09T08:38:50;3.70;99.90
5492;DHT22;2768;53.540;10.224;2023-03-09T08:44:45;3.80;99.90
5492;DHT22;2768;53.540;10.224;2023-03-09T08:50:38;3.80;99.90
5492;DHT22;2768;53.540;10.224;2023-03-09T08:56:32;3.90;99.90
5492;DHT22;2768;53.540;10.224;2023-03-09T09:02:27;3.80;99.90
5492;DHT22;2768;53.540;10.224;2023-03-09T09:08:20;4.00;99.90
5492;DHT22;2768;53.540;10.224;2023-03-09T09:14:15;4.10;99.90
5492;DHT22;2768;53.540;10.224;2023-03-09T09:20:12;4.10;99.90
5492;DHT22;2768;53.540;10.224;2023-03-09T09:26:05;4.30;99.90
5492;DHT22;2768;53.540;10.224;2023-03-09T09:31:59;4.40;99.90
5492;DHT22;2768;53.540;10.224;2023-03-09T09:37:54;4.70;99.90
5492;DHT22;2768;53.540;10.224;2023-03-09T09:43:50;4.80;99.90
5492;DHT22;2768;53.540;10.224;2023-03-09T09:49:48;5.00;99.90
5492;DHT22;2768;53.540;10.224;2023-03-09T09:55:44;5.10;99.90
5492;DHT22;2768;53.540;10.224;2023-03-09T10:01:43;4.90;99.90
5492;DHT22;2768;53.540;10.224;2023-03-09T10:07:39;4.90;99.90
5492;DHT22;2768;53.540;10.224;2023-03-09T10:13:37;4.80;99.90
5492;DHT22;2768;53.540;10.224;2023-03-09T10:19:37;4.90;99.90
5492;DHT22;2768;53.540;10.224;2023-03-09T10:25:31;4.80;99.90
5492;DHT22;2768;53.540;10.224;2023-03-09T10:31:31;4.80;99.90
5492;DHT22;2768;53.540;10.224;2023-03-09T10:37:33;4.80;99.90
5492;DHT22;2768;53.540;10.224;2023-03-09T10:43:29;4.70;99.90
5492;DHT22;2768;53.540;10.224;2023-03-09T10:49:24;4.90;99.90
5492;DHT22;2768;53.540;10.224;2023-03-09T10:55:37;4.90;99.90
5492;DHT22;2768;53.540;10.224;2023-03-09T11:01:34;4.90;99.90
5492;DHT22;2768;53.540;10.224;2023-03-09T11:07:30;4.80;99.90
5492;DHT22;2768;53.540;10.224;2023-03-09T11:13:23;4.90;99.90
5492;DHT22;2768;53.540;10.224;2023-03-09T11:19:18;4.90;99.90
5492;DHT22;2768;53.540;10.224;2023-03-09T11:25:17;4.90;99.90
5492;DHT22;2768;53.540;10.224;2023-03-09T11:31:14;5.00;99.90
5492;DHT22;2768;53.540;10.224;2023-03-09T11:37:13;5.10;99.90
5492;DHT22;2768;53.540;10.224;2023-03-09T11:43:17;5.20;99.90
5492;DHT22;2768;53.540;10.224;2023-03-09T11:49:16;5.30;99.90
5492;DHT22;2768;53.540;10.224;2023-03-09T11:55:13;5.40;99.90
5492;DHT22;2768;53.540;10.224;2023-03-09T12:01:17;5.60;99.90
5492;DHT22;2768;53.540;10.224;2023-03-09T12:07:17;5.90;99.90
5492;DHT22;2768;53.540;10.224;2023-03-09T12:13:16;6.00;99.40
5492;DHT22;2768;53.540;10.224;2023-03-09T12:19:15;5.90;94.30
5492;DHT22;2768;53.540;10.224;2023-03-09T12:25:18;5.90;91.40
5492;DHT22;2768;53.540;10.224;2023-03-09T12:31:29;6.20;94.30
5492;DHT22;2768;53.540;10.224;2023-03-09T12:43:57;6.10;89.80
5492;DHT22;2768;53.540;10.224;2023-03-09T12:49:53;6.00;80.30
5492;DHT22;2768;53.540;10.224;2023-03-09T12:55:48;6.00;81.90
5492;DHT22;2768;53.540;10.224;2023-03-09T13:01:43;5.90;69.70
5492;DHT22;2768;53.540;10.224;2023-03-09T13:07:37;5.90;71.50
5492;DHT22;2768;53.540;10.224;2023-03-09T13:13:37;5.70;65.40
5492;DHT22;2768;53.540;10.224;2023-03-09T13:19:48;5.80;72.10
5492;DHT22;2768;53.540;10.224;2023-03-09T13:25:52;5.70;69.50
5492;DHT22;2768;53.540;10.224;2023-03-09T13:31:47;5.70;79.80
5492;DHT22;2768;53.540;10.224;2023-03-09T13:37:44;5.70;79.30
5492;DHT22;2768;53.540;10.224;2023-03-09T13:43:37;5.70;86.40
5492;DHT22;2768;53.540;10.224;2023-03-09T13:49:34;5.80;90.50
5492;DHT22;2768;53.540;10.224;2023-03-09T13:55:30;5.70;88.10
5492;DHT22;2768;53.540;10.224;2023-03-09T14:01:25;5.50;79.20
5492;DHT22;2768;53.540;10.224;2023-03-09T14:07:22;5.50;76.90
5492;DHT22;2768;53.540;10.224;2023-03-09T14:13:19;5.50;79.60
5492;DHT22;2768;53.540;10.224;2023-03-09T14:19:19;5.40;78.00
5492;DHT22;2768;53.540;10.224;2023-03-09T14:25:40;5.40;78.90
5492;DHT22;2768;53.540;10.224;2023-03-09T14:31:34;5.40;82.40
5492;DHT22;2768;53.540;10.224;2023-03-09T14:37:29;5.40;86.40
5492;DHT22;2768;53.540;10.224;2023-03-09T14:43:31;5.30;87.00
5492;DHT22;2768;53.540;10.224;2023-03-09T14:49:27;5.30;90.10
5492;DHT22;2768;53.540;10.224;2023-03-09T14:55:22;5.30;90.40
5492;DHT22;2768;53.540;10.224;2023-03-09T15:01:17;5.30;91.90
5492;DHT22;2768;53.540;10.224;2023-03-09T15:07:14;5.30;92.00
5492;DHT22;2768;53.540;10.224;2023-03-09T15:13:09;5.30;93.60
5492;DHT22;2768;53.540;10.224;2023-03-09T15:19:03;5.30;94.60
5492;DHT22;2768;53.540;10.224;2023-03-09T15:24:58;5.30;94.30
5492;DHT22;2768;53.540;10.224;2023-03-09T15:30:51;5.30;98.00
5492;DHT22;2768;53.540;10.224;2023-03-09T15:36:44;5.30;99.20
5492;DHT22;2768;53.540;10.224;2023-03-09T15:42:39;5.30;99.40
5492;DHT22;2768;53.540;10.224;2023-03-09T15:48:33;5.40;99.90
5492;DHT22;2768;53.540;10.224;2023-03-09T15:54:27;5.30;99.30
5492;DHT22;2768;53.540;10.224;2023-03-09T16:00:23;5.30;99.90
5492;DHT22;2768;53.540;10.224;2023-03-09T16:06:17;5.20;99.90
5492;DHT22;2768;53.540;10.224;2023-03-09T16:12:10;5.20;99.90
5492;DHT22;2768;53.540;10.224;2023-03-09T16:18:06;5.10;99.90
5492;DHT22;2768;53.540;10.224;2023-03-09T16:23:59;5.10;99.90
5492;DHT22;2768;53.540;10.224;2023-03-09T16:29:53;5.10;99.90
5492;DHT22;2768;53.540;10.224;2023-03-09T16:35:55;5.10;99.90
5492;DHT22;2768;53.540;10.224;2023-03-09T16:41:49;5.00;99.90
5492;DHT22;2768;53.540;10.224;2023-03-09T16:47:43;4.90;99.90
5492;DHT22;2768;53.540;10.224;2023-03-09T16:53:38;4.80;99.90
5492;DHT22;2768;53.540;10.224;2023-03-09T16:59:31;4.70;99.90
5492;DHT22;2768;53.540;10.224;2023-03-09T17:05:25;4.70;99.90
5492;DHT22;2768;53.540;10.224;2023-03-09T17:11:20;4.70;99.90
5492;DHT22;2768;53.540;10.224;2023-03-09T17:17:14;4.70;99.90
5492;DHT22;2768;53.540;10.224;2023-03-09T17:23:08;4.60;99.90
5492;DHT22;2768;53.540;10.224;2023-03-09T17:29:03;4.60;99.90
5492;DHT22;2768;53.540;10.224;2023-03-09T17:34:56;4.60;99.90
5492;DHT22;2768;53.540;10.224;2023-03-09T17:40:50;4.60;99.90
5492;DHT22;2768;53.540;10.224;2023-03-09T17:46:45;4.40;99.90
5492;DHT22;2768;53.540;10.224;2023-03-09T17:52:38;4.40;99.90
5492;DHT22;2768;53.540;10.224;2023-03-09T17:58:32;4.40;99.90
5492;DHT22;2768;53.540;10.224;2023-03-09T18:04:27;4.40;99.90
5492;DHT22;2768;53.540;10.224;2023-03-09T18:10:22;4.40;99.90
5492;DHT22;2768;53.540;10.224;2023-03-09T18:16:17;4.40;99.90
5492;DHT22;2768;53.540;10.224;2023-03-09T18:22:14;4.30;99.90
5492;DHT22;2768;53.540;10.224;2023-03-09T18:28:08;4.40;99.90
5492;DHT22;2768;53.540;10.224;2023-03-09T18:34:02;4.40;99.90
5492;DHT22;2768;53.540;10.224;2023-03-09T18:39:58;4.40;99.90
5492;DHT22;2768;53.540;10.224;2023-03-09T18:45:51;4.40;99.90
5492;DHT22;2768;53.540;10.224;2023-03-09T18:51:45;4.30;99.90
5492;DHT22;2768;53.540;10.224;2023-03-09T18:57:40;4.30;99.90
5492;DHT22;2768;53.540;10.224;2023-03-09T19:03:33;4.40;99.90
5492;DHT22;2768;53.540;10.224;2023-03-09T19:09:27;4.30;99.90
5492;DHT22;2768;53.540;10.224;2023-03-09T19:15:22;4.30;99.90
5492;DHT22;2768;53.540;10.224;2023-03-09T19:21:16;4.30;99.90
5492;DHT22;2768;53.540;10.224;2023-03-09T19:27:10;4.30;99.90
5492;DHT22;2768;53.540;10.224;2023-03-09T19:33:05;4.30;99.90
5492;DHT22;2768;53.540;10.224;2023-03-09T19:39:01;4.20;99.90
5492;DHT22;2768;53.540;10.224;2023-03-09T19:44:55;4.20;99.90
5492;DHT22;2768;53.540;10.224;2023-03-09T19:50:59;4.20;99.90
5492;DHT22;2768;53.540;10.224;2023-03-09T19:56:52;4.20;99.90
5492;DHT22;2768;53.540;10.224;2023-03-09T20:02:49;4.20;99.90
5492;DHT22;2768;53.540;10.224;2023-03-09T20:08:44;4.20;99.90
5492;DHT22;2768;53.540;10.224;2023-03-09T20:14:37;4.20;99.90
5492;DHT22;2768;53.540;10.224;2023-03-09T20:20:31;4.20;99.90
5492;DHT22;2768;53.540;10.224;2023-03-09T20:26:27;4.10;99.90
5492;DHT22;2768;53.540;10.224;2023-03-09T20:32:20;4.00;99.90
5492;DHT22;2768;53.540;10.224;2023-03-09T20:38:15;4.00;99.90
5492;DHT22;2768;53.540;10.224;2023-03-09T20:44:10;4.00;99.90
5492;DHT22;2768;53.540;10.224;2023-03-09T20:50:04;4.00;99.90
5492;DHT22;2768;53.540;10.224;2023-03-09T20:55:57;3.90;99.90
5492;DHT22;2768;53.540;10.224;2023-03-09T21:01:53;3.90;99.90
5492;DHT22;2768;53.540;10.224;2023-03-09T21:07:46;3.90;99.90
5492;DHT22;2768;53.540;10.224;2023-03-09T21:13:40;3.90;99.90
5492;DHT22;2768;53.540;10.224;2023-03-09T21:19:35;3.80;99.90
5492;DHT22;2768;53.540;10.224;2023-03-09T21:25:29;3.90;99.90
5492;DHT22;2768;53.540;10.224;2023-03-09T21:31:24;3.80;99.90
5492;DHT22;2768;53.540;10.224;2023-03-09T21:37:19;3.90;99.90
5492;DHT22;2768;53.540;10.224;2023-03-09T21:43:13;3.90;99.90
5492;DHT22;2768;53.540;10.224;2023-03-09T21:49:09;3.90;99.90
5492;DHT22;2768;53.540;10.224;2023-03-09T21:55:04;3.80;99.90
5492;DHT22;2768;53.540;10.224;2023-03-09T22:00:57;3.80;99.90
5492;DHT22;2768;53.540;10.224;2023-03-09T22:06:52;3.90;99.90
5492;DHT22;2768;53.540;10.224;2023-03-09T22:12:46;3.80;99.90
5492;DHT22;2768;53.540;10.224;2023-03-09T22:18:40;3.80;99.90
5492;DHT22;2768;53.540;10.224;2023-03-09T22:24:33;3.80;99.90
5492;DHT22;2768;53.540;10.224;2023-03-09T22:30:28;3.80;99.90
5492;DHT22;2768;53.540;10.224;2023-03-09T22:36:21;3.80;99.90
5492;DHT22;2768;53.540;10.224;2023-03-09T22:42:15;3.80;99.90
5492;DHT22;2768;53.540;10.224;2023-03-09T22:48:10;3.70;99.90
5492;DHT22;2768;53.540;10.224;2023-03-09T22:54:04;3.70;99.90
5492;DHT22;2768;53.540;10.224;2023-03-09T22:59:57;3.70;99.90
5492;DHT22;2768;53.540;10.224;2023-03-09T23:05:53;3.70;99.90
5492;DHT22;2768;53.540;10.224;2023-03-09T23:11:46;3.80;99.90
5492;DHT22;2768;53.540;10.224;2023-03-09T23:17:39;3.70;99.90
5492;DHT22;2768;53.540;10.224;2023-03-09T23:23:34;3.70;99.90
5492;DHT22;2768;53.540;10.224;2023-03-09T23:29:28;3.70;99.90
5492;DHT22;2768;53.540;10.224;2023-03-09T23:35:22;3.70;99.90
5492;DHT22;2768;53.540;10.224;2023-03-09T23:41:17;3.60;99.90
5492;DHT22;2768;53.540;10.224;2023-03-09T23:47:11;3.60;99.90
5492;DHT22;2768;53.540;10.224;2023-03-09T23:53:04;3.60;99.90
5492;DHT22;2768;53.540;10.224;2023-03-09T23:58:59;3.70;99.90
